sensor_id;sensor_type;location;lat;lon;timestamp;temperature;humidity
13268;DHT22;6702;47.068;15.458;2022-12-11T00:01:19;5.90;99.90
13268;DHT22;6702;47.068;15.458;2022-12-11T00:04:22;5.90;99.90
13268;DHT22;6702;47.068;15.458;2022-12-11T00:07:27;5.90;99.90
13268;DHT22;6702;47.068;15.458;2022-12-11T00:10:30;6.00;99.90
13268;DHT22;6702;47.068;15.458;2022-12-11T00:13:38;6.00;99.90
13268;DHT22;6702;47.068;15.458;2022-12-11T00:16:41;5.90;99.90
13268;DHT22;6702;47.068;15.458;2022-12-11T00:19:44;5.90;99.90
13268;DHT22;6702;47.068;15.458;2022-12-11T00:22:49;5.90;99.90
13268;DHT22;6702;47.068;15.458;2022-12-11T00:25:52;5.90;99.90
13268;DHT22;6702;47.068;15.458;2022-12-11T00:28:56;5.90;99.90
13268;DHT22;6702;47.068;15.458;2022-12-11T00:31:59;5.90;99.90
13268;DHT22;6702;47.068;15.458;2022-12-11T00:35:03;5.90;99.90
13268;DHT22;6702;47.068;15.458;2022-12-11T00:38:08;5.90;99.90
13268;DHT22;6702;47.068;15.458;2022-12-11T00:41:16;5.90;99.90
13268;DHT22;6702;47.068;15.458;2022-12-11T00:44:19;5.90;99.90
13268;DHT22;6702;47.068;15.458;2022-12-11T00:47:23;6.00;99.90
13268;DHT22;6702;47.068;15.458;2022-12-11T00:50:26;6.00;99.90
13268;DHT22;6702;47.068;15.458;2022-12-11T00:53:30;6.00;99.90
13268;DHT22;6702;47.068;15.458;2022-12-11T00:56:35;6.00;99.90
13268;DHT22;6702;47.068;15.458;2022-12-11T00:59:38;6.00;99.90
13268;DHT22;6702;47.068;15.458;2022-12-11T01:02:41;6.00;99.90
13268;DHT22;6702;47.068;15.458;2022-12-11T01:05:50;6.10;99.90
13268;DHT22;6702;47.068;15.458;2022-12-11T01:08:56;6.00;99.90
13268;DHT22;6702;47.068;15.458;2022-12-11T01:12:13;6.10;99.90
13268;DHT22;6702;47.068;15.458;2022-12-11T01:15:17;6.00;99.90
13268;DHT22;6702;47.068;15.458;2022-12-11T01:18:20;6.00;99.90
13268;DHT22;6702;47.068;15.458;2022-12-11T01:21:23;6.00;99.90
13268;DHT22;6702;47.068;15.458;2022-12-11T01:24:27;5.90;99.90
13268;DHT22;6702;47.068;15.458;2022-12-11T01:27:30;5.90;99.60
13268;DHT22;6702;47.068;15.458;2022-12-11T01:30:34;5.90;99.30
13268;DHT22;6702;47.068;15.458;2022-12-11T01:33:38;5.90;98.30
13268;DHT22;6702;47.068;15.458;2022-12-11T01:36:41;5.90;98.30
13268;DHT22;6702;47.068;15.458;2022-12-11T01:39:46;5.90;98.90
13268;DHT22;6702;47.068;15.458;2022-12-11T01:42:49;5.90;98.70
13268;DHT22;6702;47.068;15.458;2022-12-11T01:45:53;5.80;98.70
13268;DHT22;6702;47.068;15.458;2022-12-11T01:48:56;5.90;98.40
13268;DHT22;6702;47.068;15.458;2022-12-11T01:52:02;5.90;98.30
13268;DHT22;6702;47.068;15.458;2022-12-11T01:55:09;5.90;98.40
13268;DHT22;6702;47.068;15.458;2022-12-11T01:58:14;5.90;97.40
13268;DHT22;6702;47.068;15.458;2022-12-11T02:01:23;5.90;97.50
13268;DHT22;6702;47.068;15.458;2022-12-11T02:04:29;5.90;96.80
13268;DHT22;6702;47.068;15.458;2022-12-11T02:07:38;5.90;97.50
13268;DHT22;6702;47.068;15.458;2022-12-11T02:10:51;5.90;97.60
13268;DHT22;6702;47.068;15.458;2022-12-11T02:14:05;5.90;97.50
13268;DHT22;6702;47.068;15.458;2022-12-11T02:17:12;5.90;97.20
13268;DHT22;6702;47.068;15.458;2022-12-11T02:20:22;6.00;97.40
13268;DHT22;6702;47.068;15.458;2022-12-11T02:27:22;6.00;96.50
13268;DHT22;6702;47.068;15.458;2022-12-11T02:30:30;5.90;96.10
13268;DHT22;6702;47.068;15.458;2022-12-11T02:33:42;6.00;97.00
13268;DHT22;6702;47.068;15.458;2022-12-11T02:36:49;6.00;97.10
13268;DHT22;6702;47.068;15.458;2022-12-11T02:39:54;6.00;96.40
13268;DHT22;6702;47.068;15.458;2022-12-11T02:43:02;5.90;96.80
13268;DHT22;6702;47.068;15.458;2022-12-11T02:46:07;6.00;95.90
13268;DHT22;6702;47.068;15.458;2022-12-11T02:49:11;6.00;95.60
13268;DHT22;6702;47.068;15.458;2022-12-11T02:52:19;5.90;95.50
13268;DHT22;6702;47.068;15.458;2022-12-11T02:55:25;5.90;94.50
13268;DHT22;6702;47.068;15.458;2022-12-11T02:58:31;5.90;94.90
13268;DHT22;6702;47.068;15.458;2022-12-11T03:01:36;5.80;95.00
13268;DHT22;6702;47.068;15.458;2022-12-11T03:04:40;5.80;94.80
13268;DHT22;6702;47.068;15.458;2022-12-11T03:07:44;5.80;94.60
13268;DHT22;6702;47.068;15.458;2022-12-11T03:10:47;5.80;95.20
13268;DHT22;6702;47.068;15.458;2022-12-11T03:13:50;5.80;94.40
13268;DHT22;6702;47.068;15.458;2022-12-11T03:17:00;5.80;95.10
13268;DHT22;6702;47.068;15.458;2022-12-11T03:20:10;5.80;94.50
13268;DHT22;6702;47.068;15.458;2022-12-11T03:23:19;5.70;94.80
13268;DHT22;6702;47.068;15.458;2022-12-11T03:26:23;5.70;95.10
13268;DHT22;6702;47.068;15.458;2022-12-11T03:29:31;5.70;95.20
13268;DHT22;6702;47.068;15.458;2022-12-11T03:32:42;5.70;95.20
13268;DHT22;6702;47.068;15.458;2022-12-11T03:35:52;5.60;94.90
13268;DHT22;6702;47.068;15.458;2022-12-11T03:38:58;5.50;95.60
13268;DHT22;6702;47.068;15.458;2022-12-11T03:42:05;5.40;95.20
13268;DHT22;6702;47.068;15.458;2022-12-11T03:45:10;5.30;95.70
13268;DHT22;6702;47.068;15.458;2022-12-11T03:48:17;5.40;96.50
13268;DHT22;6702;47.068;15.458;2022-12-11T03:51:20;5.30;96.70
13268;DHT22;6702;47.068;15.458;2022-12-11T03:54:25;5.20;97.20
13268;DHT22;6702;47.068;15.458;2022-12-11T03:57:32;5.20;97.30
13268;DHT22;6702;47.068;15.458;2022-12-11T04:00:37;5.20;98.00
13268;DHT22;6702;47.068;15.458;2022-12-11T04:03:41;5.20;97.30
13268;DHT22;6702;47.068;15.458;2022-12-11T04:06:45;5.20;97.40
13268;DHT22;6702;47.068;15.458;2022-12-11T04:09:48;5.20;97.30
13268;DHT22;6702;47.068;15.458;2022-12-11T04:12:51;5.20;97.40
13268;DHT22;6702;47.068;15.458;2022-12-11T04:15:54;5.20;97.20
13268;DHT22;6702;47.068;15.458;2022-12-11T04:18:58;5.20;96.90
13268;DHT22;6702;47.068;15.458;2022-12-11T04:22:18;5.10;96.50
13268;DHT22;6702;47.068;15.458;2022-12-11T04:25:39;5.10;96.70
13268;DHT22;6702;47.068;15.458;2022-12-11T04:28:43;5.00;97.10
13268;DHT22;6702;47.068;15.458;2022-12-11T04:31:47;5.10;97.00
13268;DHT22;6702;47.068;15.458;2022-12-11T04:34:52;5.00;96.90
13268;DHT22;6702;47.068;15.458;2022-12-11T04:37:56;5.10;96.60
13268;DHT22;6702;47.068;15.458;2022-12-11T04:40:59;5.00;96.60
13268;DHT22;6702;47.068;15.458;2022-12-11T04:44:03;5.00;96.60
13268;DHT22;6702;47.068;15.458;2022-12-11T04:47:06;5.00;96.40
13268;DHT22;6702;47.068;15.458;2022-12-11T04:50:12;5.00;96.40
13268;DHT22;6702;47.068;15.458;2022-12-11T04:53:16;5.10;96.10
13268;DHT22;6702;47.068;15.458;2022-12-11T04:56:19;5.20;95.70
13268;DHT22;6702;47.068;15.458;2022-12-11T04:59:23;5.20;95.40
13268;DHT22;6702;47.068;15.458;2022-12-11T05:02:26;5.20;95.20
13268;DHT22;6702;47.068;15.458;2022-12-11T05:05:30;5.30;94.70
13268;DHT22;6702;47.068;15.458;2022-12-11T05:08:36;5.20;93.30
13268;DHT22;6702;47.068;15.458;2022-12-11T05:11:39;5.20;93.00
13268;DHT22;6702;47.068;15.458;2022-12-11T05:14:42;5.20;92.60
13268;DHT22;6702;47.068;15.458;2022-12-11T05:17:46;5.20;93.00
13268;DHT22;6702;47.068;15.458;2022-12-11T05:20:55;5.30;92.90
13268;DHT22;6702;47.068;15.458;2022-12-11T05:23:58;5.30;91.90
13268;DHT22;6702;47.068;15.458;2022-12-11T05:27:01;5.20;91.00
13268;DHT22;6702;47.068;15.458;2022-12-11T05:30:06;5.20;91.30
13268;DHT22;6702;47.068;15.458;2022-12-11T05:33:10;5.20;91.90
13268;DHT22;6702;47.068;15.458;2022-12-11T05:36:17;5.30;91.50
13268;DHT22;6702;47.068;15.458;2022-12-11T05:39:20;5.20;90.90
13268;DHT22;6702;47.068;15.458;2022-12-11T05:42:24;5.30;90.60
13268;DHT22;6702;47.068;15.458;2022-12-11T05:45:30;5.30;90.40
13268;DHT22;6702;47.068;15.458;2022-12-11T05:48:33;5.30;90.00
13268;DHT22;6702;47.068;15.458;2022-12-11T05:51:38;5.30;90.40
13268;DHT22;6702;47.068;15.458;2022-12-11T05:54:42;5.40;90.00
13268;DHT22;6702;47.068;15.458;2022-12-11T05:57:45;5.30;90.00
13268;DHT22;6702;47.068;15.458;2022-12-11T06:00:48;5.40;90.10
13268;DHT22;6702;47.068;15.458;2022-12-11T06:03:52;5.50;88.80
13268;DHT22;6702;47.068;15.458;2022-12-11T06:06:57;5.40;88.50
13268;DHT22;6702;47.068;15.458;2022-12-11T06:10:00;5.40;88.90
13268;DHT22;6702;47.068;15.458;2022-12-11T06:13:03;5.50;88.10
13268;DHT22;6702;47.068;15.458;2022-12-11T06:16:07;5.40;86.40
13268;DHT22;6702;47.068;15.458;2022-12-11T06:19:12;5.40;88.50
13268;DHT22;6702;47.068;15.458;2022-12-11T06:22:17;5.40;87.70
13268;DHT22;6702;47.068;15.458;2022-12-11T06:25:21;5.40;87.10
13268;DHT22;6702;47.068;15.458;2022-12-11T06:28:24;5.40;86.40
13268;DHT22;6702;47.068;15.458;2022-12-11T06:31:27;5.40;85.90
13268;DHT22;6702;47.068;15.458;2022-12-11T06:34:30;5.40;86.40
13268;DHT22;6702;47.068;15.458;2022-12-11T06:37:35;5.40;87.00
13268;DHT22;6702;47.068;15.458;2022-12-11T06:40:39;5.40;85.90
13268;DHT22;6702;47.068;15.458;2022-12-11T06:43:42;5.40;84.80
13268;DHT22;6702;47.068;15.458;2022-12-11T06:46:45;5.30;84.60
13268;DHT22;6702;47.068;15.458;2022-12-11T06:49:48;5.30;86.00
13268;DHT22;6702;47.068;15.458;2022-12-11T06:52:54;5.40;84.70
13268;DHT22;6702;47.068;15.458;2022-12-11T06:56:01;5.40;84.80
13268;DHT22;6702;47.068;15.458;2022-12-11T06:59:04;5.40;84.40
13268;DHT22;6702;47.068;15.458;2022-12-11T07:02:10;5.40;84.20
13268;DHT22;6702;47.068;15.458;2022-12-11T07:05:14;5.40;85.20
13268;DHT22;6702;47.068;15.458;2022-12-11T07:08:19;5.40;84.20
13268;DHT22;6702;47.068;15.458;2022-12-11T07:11:22;5.50;84.20
13268;DHT22;6702;47.068;15.458;2022-12-11T07:14:25;5.50;84.00
13268;DHT22;6702;47.068;15.458;2022-12-11T07:17:29;5.50;84.90
13268;DHT22;6702;47.068;15.458;2022-12-11T07:20:32;5.60;83.70
13268;DHT22;6702;47.068;15.458;2022-12-11T07:23:37;5.70;83.60
13268;DHT22;6702;47.068;15.458;2022-12-11T07:26:40;5.70;82.00
13268;DHT22;6702;47.068;15.458;2022-12-11T07:29:43;5.80;82.90
13268;DHT22;6702;47.068;15.458;2022-12-11T07:32:46;5.80;82.80
13268;DHT22;6702;47.068;15.458;2022-12-11T07:35:49;5.80;81.80
13268;DHT22;6702;47.068;15.458;2022-12-11T07:38:54;5.90;79.90
13268;DHT22;6702;47.068;15.458;2022-12-11T07:41:58;5.80;80.70
13268;DHT22;6702;47.068;15.458;2022-12-11T07:45:01;5.80;80.40
13268;DHT22;6702;47.068;15.458;2022-12-11T07:48:04;5.90;77.80
13268;DHT22;6702;47.068;15.458;2022-12-11T07:51:09;5.90;76.70
13268;DHT22;6702;47.068;15.458;2022-12-11T07:54:15;5.90;77.70
13268;DHT22;6702;47.068;15.458;2022-12-11T07:57:18;6.00;78.00
13268;DHT22;6702;47.068;15.458;2022-12-11T08:00:21;6.10;78.30
13268;DHT22;6702;47.068;15.458;2022-12-11T08:03:24;6.20;78.70
13268;DHT22;6702;47.068;15.458;2022-12-11T08:06:28;6.20;77.90
13268;DHT22;6702;47.068;15.458;2022-12-11T08:09:33;6.10;76.80
13268;DHT22;6702;47.068;15.458;2022-12-11T08:12:36;6.10;76.50
13268;DHT22;6702;47.068;15.458;2022-12-11T08:15:39;6.10;76.50
13268;DHT22;6702;47.068;15.458;2022-12-11T08:18:44;6.10;76.60
13268;DHT22;6702;47.068;15.458;2022-12-11T08:21:47;6.30;77.50
13268;DHT22;6702;47.068;15.458;2022-12-11T08:24:52;6.40;75.10
13268;DHT22;6702;47.068;15.458;2022-12-11T08:27:55;6.40;75.50
13268;DHT22;6702;47.068;15.458;2022-12-11T08:30:58;6.60;75.20
13268;DHT22;6702;47.068;15.458;2022-12-11T08:34:02;6.60;74.30
13268;DHT22;6702;47.068;15.458;2022-12-11T08:37:05;6.70;75.40
13268;DHT22;6702;47.068;15.458;2022-12-11T08:40:10;6.70;73.60
13268;DHT22;6702;47.068;15.458;2022-12-11T08:43:14;6.80;73.40
13268;DHT22;6702;47.068;15.458;2022-12-11T08:46:18;6.90;72.50
13268;DHT22;6702;47.068;15.458;2022-12-11T08:49:21;7.00;71.60
13268;DHT22;6702;47.068;15.458;2022-12-11T08:52:24;7.00;70.50
13268;DHT22;6702;47.068;15.458;2022-12-11T08:55:28;7.00;70.20
13268;DHT22;6702;47.068;15.458;2022-12-11T08:58:32;7.10;68.80
13268;DHT22;6702;47.068;15.458;2022-12-11T09:01:35;7.20;69.30
13268;DHT22;6702;47.068;15.458;2022-12-11T09:04:38;7.20;69.00
13268;DHT22;6702;47.068;15.458;2022-12-11T09:07:41;7.30;68.30
13268;DHT22;6702;47.068;15.458;2022-12-11T09:10:46;7.30;67.30
13268;DHT22;6702;47.068;15.458;2022-12-11T09:13:49;7.30;66.50
13268;DHT22;6702;47.068;15.458;2022-12-11T09:16:53;7.30;66.90
13268;DHT22;6702;47.068;15.458;2022-12-11T09:19:56;7.40;66.80
13268;DHT22;6702;47.068;15.458;2022-12-11T09:23:00;7.40;65.20
13268;DHT22;6702;47.068;15.458;2022-12-11T09:26:06;7.30;64.30
13268;DHT22;6702;47.068;15.458;2022-12-11T09:29:09;7.20;66.00
13268;DHT22;6702;47.068;15.458;2022-12-11T09:32:13;7.10;64.50
13268;DHT22;6702;47.068;15.458;2022-12-11T09:35:16;7.00;63.80
13268;DHT22;6702;47.068;15.458;2022-12-11T09:38:19;7.00;66.00
13268;DHT22;6702;47.068;15.458;2022-12-11T09:41:35;7.10;66.20
13268;DHT22;6702;47.068;15.458;2022-12-11T09:44:41;7.20;65.30
13268;DHT22;6702;47.068;15.458;2022-12-11T09:47:47;7.30;64.00
13268;DHT22;6702;47.068;15.458;2022-12-11T09:50:54;7.40;62.80
13268;DHT22;6702;47.068;15.458;2022-12-11T09:54:00;7.30;62.20
13268;DHT22;6702;47.068;15.458;2022-12-11T09:57:12;7.30;61.70
13268;DHT22;6702;47.068;15.458;2022-12-11T10:00:24;7.20;62.80
13268;DHT22;6702;47.068;15.458;2022-12-11T10:03:57;7.00;61.90
13268;DHT22;6702;47.068;15.458;2022-12-11T10:07:10;7.00;61.90
13268;DHT22;6702;47.068;15.458;2022-12-11T10:10:19;7.10;62.00
13268;DHT22;6702;47.068;15.458;2022-12-11T10:13:34;7.10;62.00
13268;DHT22;6702;47.068;15.458;2022-12-11T10:16:43;7.00;60.50
13268;DHT22;6702;47.068;15.458;2022-12-11T10:19:47;6.80;60.80
13268;DHT22;6702;47.068;15.458;2022-12-11T10:22:51;6.90;61.70
13268;DHT22;6702;47.068;15.458;2022-12-11T10:26:01;6.90;61.10
13268;DHT22;6702;47.068;15.458;2022-12-11T10:29:12;6.90;61.10
13268;DHT22;6702;47.068;15.458;2022-12-11T10:32:21;6.90;60.70
13268;DHT22;6702;47.068;15.458;2022-12-11T10:35:30;6.80;59.70
13268;DHT22;6702;47.068;15.458;2022-12-11T10:38:39;6.80;59.70
13268;DHT22;6702;47.068;15.458;2022-12-11T10:41:45;6.70;59.90
13268;DHT22;6702;47.068;15.458;2022-12-11T10:44:58;6.70;59.80
13268;DHT22;6702;47.068;15.458;2022-12-11T10:48:04;6.70;59.60
13268;DHT22;6702;47.068;15.458;2022-12-11T10:51:07;6.60;59.80
13268;DHT22;6702;47.068;15.458;2022-12-11T10:54:17;6.70;60.30
13268;DHT22;6702;47.068;15.458;2022-12-11T10:57:31;6.80;59.80
13268;DHT22;6702;47.068;15.458;2022-12-11T11:00:39;6.80;57.80
13268;DHT22;6702;47.068;15.458;2022-12-11T11:03:52;6.80;57.80
13268;DHT22;6702;47.068;15.458;2022-12-11T11:07:10;6.90;58.10
13268;DHT22;6702;47.068;15.458;2022-12-11T11:10:16;7.10;57.50
13268;DHT22;6702;47.068;15.458;2022-12-11T11:13:20;7.50;57.60
13268;DHT22;6702;47.068;15.458;2022-12-11T11:16:25;7.60;56.00
13268;DHT22;6702;47.068;15.458;2022-12-11T11:19:30;7.70;55.80
13268;DHT22;6702;47.068;15.458;2022-12-11T11:22:38;7.80;55.30
13268;DHT22;6702;47.068;15.458;2022-12-11T11:25:49;7.90;54.70
13268;DHT22;6702;47.068;15.458;2022-12-11T11:28:54;8.10;55.40
13268;DHT22;6702;47.068;15.458;2022-12-11T11:32:14;8.30;54.80
13268;DHT22;6702;47.068;15.458;2022-12-11T11:35:20;8.50;54.20
13268;DHT22;6702;47.068;15.458;2022-12-11T11:38:27;8.50;53.50
13268;DHT22;6702;47.068;15.458;2022-12-11T11:41:34;8.50;53.20
13268;DHT22;6702;47.068;15.458;2022-12-11T11:44:41;8.20;52.20
13268;DHT22;6702;47.068;15.458;2022-12-11T11:47:55;7.90;51.70
13268;DHT22;6702;47.068;15.458;2022-12-11T11:51:10;7.60;52.60
13268;DHT22;6702;47.068;15.458;2022-12-11T11:54:24;7.30;52.80
13268;DHT22;6702;47.068;15.458;2022-12-11T11:57:36;7.30;53.90
13268;DHT22;6702;47.068;15.458;2022-12-11T12:00:43;7.20;53.20
13268;DHT22;6702;47.068;15.458;2022-12-11T12:03:48;7.30;53.60
13268;DHT22;6702;47.068;15.458;2022-12-11T12:07:09;7.30;53.30
13268;DHT22;6702;47.068;15.458;2022-12-11T12:10:20;7.30;52.80
13268;DHT22;6702;47.068;15.458;2022-12-11T12:13:28;7.30;52.60
13268;DHT22;6702;47.068;15.458;2022-12-11T12:16:59;7.10;52.30
13268;DHT22;6702;47.068;15.458;2022-12-11T12:20:15;7.10;53.10
13268;DHT22;6702;47.068;15.458;2022-12-11T12:23:41;7.20;53.80
13268;DHT22;6702;47.068;15.458;2022-12-11T12:26:52;7.30;53.30
13268;DHT22;6702;47.068;15.458;2022-12-11T12:30:01;7.30;53.30
13268;DHT22;6702;47.068;15.458;2022-12-11T12:33:21;7.20;53.20
13268;DHT22;6702;47.068;15.458;2022-12-11T12:36:36;7.20;52.80
13268;DHT22;6702;47.068;15.458;2022-12-11T12:39:51;7.10;52.90
13268;DHT22;6702;47.068;15.458;2022-12-11T12:43:05;7.00;52.80
13268;DHT22;6702;47.068;15.458;2022-12-11T12:46:23;6.90;53.40
13268;DHT22;6702;47.068;15.458;2022-12-11T12:49:34;6.90;53.40
13268;DHT22;6702;47.068;15.458;2022-12-11T12:52:40;6.70;52.80
13268;DHT22;6702;47.068;15.458;2022-12-11T12:55:45;6.60;53.40
13268;DHT22;6702;47.068;15.458;2022-12-11T12:58:50;6.50;52.70
13268;DHT22;6702;47.068;15.458;2022-12-11T13:01:55;6.40;53.00
13268;DHT22;6702;47.068;15.458;2022-12-11T13:05:03;6.40;53.30
13268;DHT22;6702;47.068;15.458;2022-12-11T13:08:11;6.30;52.70
13268;DHT22;6702;47.068;15.458;2022-12-11T13:11:16;6.40;53.10
13268;DHT22;6702;47.068;15.458;2022-12-11T13:14:25;6.50;53.80
13268;DHT22;6702;47.068;15.458;2022-12-11T13:17:37;6.50;52.70
13268;DHT22;6702;47.068;15.458;2022-12-11T13:20:47;6.40;52.70
13268;DHT22;6702;47.068;15.458;2022-12-11T13:23:53;6.50;53.50
13268;DHT22;6702;47.068;15.458;2022-12-11T13:27:08;6.40;52.00
13268;DHT22;6702;47.068;15.458;2022-12-11T13:30:22;6.40;52.50
13268;DHT22;6702;47.068;15.458;2022-12-11T13:33:25;6.30;52.20
13268;DHT22;6702;47.068;15.458;2022-12-11T13:36:31;6.10;52.20
13268;DHT22;6702;47.068;15.458;2022-12-11T13:39:38;6.10;52.10
13268;DHT22;6702;47.068;15.458;2022-12-11T13:42:47;6.00;52.80
13268;DHT22;6702;47.068;15.458;2022-12-11T13:45:54;5.90;52.20
13268;DHT22;6702;47.068;15.458;2022-12-11T13:49:00;5.80;52.90
13268;DHT22;6702;47.068;15.458;2022-12-11T13:52:05;5.70;53.20
13268;DHT22;6702;47.068;15.458;2022-12-11T13:55:23;5.70;54.50
13268;DHT22;6702;47.068;15.458;2022-12-11T13:58:27;5.50;55.00
13268;DHT22;6702;47.068;15.458;2022-12-11T14:01:33;5.50;54.70
13268;DHT22;6702;47.068;15.458;2022-12-11T14:04:36;5.50;54.80
13268;DHT22;6702;47.068;15.458;2022-12-11T14:07:42;5.40;54.90
13268;DHT22;6702;47.068;15.458;2022-12-11T14:10:52;5.20;55.50
13268;DHT22;6702;47.068;15.458;2022-12-11T14:13:57;5.20;56.00
13268;DHT22;6702;47.068;15.458;2022-12-11T14:17:02;5.20;56.50
13268;DHT22;6702;47.068;15.458;2022-12-11T14:20:15;5.10;57.00
13268;DHT22;6702;47.068;15.458;2022-12-11T14:23:21;5.10;56.70
13268;DHT22;6702;47.068;15.458;2022-12-11T14:26:29;4.90;57.40
13268;DHT22;6702;47.068;15.458;2022-12-11T14:29:33;5.00;57.20
13268;DHT22;6702;47.068;15.458;2022-12-11T14:32:41;5.00;58.10
13268;DHT22;6702;47.068;15.458;2022-12-11T14:35:46;5.00;57.40
13268;DHT22;6702;47.068;15.458;2022-12-11T14:38:54;5.00;57.40
13268;DHT22;6702;47.068;15.458;2022-12-11T14:42:02;4.90;57.50
13268;DHT22;6702;47.068;15.458;2022-12-11T14:45:14;4.90;57.70
13268;DHT22;6702;47.068;15.458;2022-12-11T14:48:22;4.80;58.40
13268;DHT22;6702;47.068;15.458;2022-12-11T14:51:28;4.80;59.20
13268;DHT22;6702;47.068;15.458;2022-12-11T14:54:36;4.80;59.00
13268;DHT22;6702;47.068;15.458;2022-12-11T14:57:43;4.80;59.10
13268;DHT22;6702;47.068;15.458;2022-12-11T15:00:56;4.70;59.70
13268;DHT22;6702;47.068;15.458;2022-12-11T15:04:06;4.50;59.60
13268;DHT22;6702;47.068;15.458;2022-12-11T15:07:19;4.40;60.30
13268;DHT22;6702;47.068;15.458;2022-12-11T15:10:29;4.40;60.40
13268;DHT22;6702;47.068;15.458;2022-12-11T15:13:38;4.40;60.50
13268;DHT22;6702;47.068;15.458;2022-12-11T15:16:42;4.30;60.30
13268;DHT22;6702;47.068;15.458;2022-12-11T15:19:48;4.30;61.30
13268;DHT22;6702;47.068;15.458;2022-12-11T15:22:53;4.30;60.90
13268;DHT22;6702;47.068;15.458;2022-12-11T15:26:00;4.20;62.30
13268;DHT22;6702;47.068;15.458;2022-12-11T15:29:22;4.10;62.30
13268;DHT22;6702;47.068;15.458;2022-12-11T15:32:29;4.00;63.70
13268;DHT22;6702;47.068;15.458;2022-12-11T15:35:33;3.90;64.40
13268;DHT22;6702;47.068;15.458;2022-12-11T15:38:38;3.80;64.30
13268;DHT22;6702;47.068;15.458;2022-12-11T15:41:43;3.90;65.20
13268;DHT22;6702;47.068;15.458;2022-12-11T15:44:48;3.90;65.30
13268;DHT22;6702;47.068;15.458;2022-12-11T15:47:51;3.90;66.40
13268;DHT22;6702;47.068;15.458;2022-12-11T15:50:55;3.90;66.40
13268;DHT22;6702;47.068;15.458;2022-12-11T15:53:59;3.90;66.70
13268;DHT22;6702;47.068;15.458;2022-12-11T15:57:05;3.90;66.50
13268;DHT22;6702;47.068;15.458;2022-12-11T16:00:13;4.00;66.50
13268;DHT22;6702;47.068;15.458;2022-12-11T16:03:19;3.90;66.50
13268;DHT22;6702;47.068;15.458;2022-12-11T16:06:22;4.00;67.00
13268;DHT22;6702;47.068;15.458;2022-12-11T16:09:26;4.00;66.90
13268;DHT22;6702;47.068;15.458;2022-12-11T16:12:30;4.00;66.40
13268;DHT22;6702;47.068;15.458;2022-12-11T16:15:36;3.90;66.30
13268;DHT22;6702;47.068;15.458;2022-12-11T16:18:41;3.90;67.00
13268;DHT22;6702;47.068;15.458;2022-12-11T16:21:45;3.80;67.40
13268;DHT22;6702;47.068;15.458;2022-12-11T16:24:52;3.80;68.70
13268;DHT22;6702;47.068;15.458;2022-12-11T16:27:56;3.80;69.40
13268;DHT22;6702;47.068;15.458;2022-12-11T16:31:01;3.70;69.00
13268;DHT22;6702;47.068;15.458;2022-12-11T16:34:06;3.70;69.30
13268;DHT22;6702;47.068;15.458;2022-12-11T16:37:10;3.60;69.40
13268;DHT22;6702;47.068;15.458;2022-12-11T16:40:16;3.60;70.10
13268;DHT22;6702;47.068;15.458;2022-12-11T16:43:20;3.40;71.00
13268;DHT22;6702;47.068;15.458;2022-12-11T16:46:25;3.30;71.80
13268;DHT22;6702;47.068;15.458;2022-12-11T16:49:30;3.30;72.90
13268;DHT22;6702;47.068;15.458;2022-12-11T16:52:33;3.30;73.40
13268;DHT22;6702;47.068;15.458;2022-12-11T16:55:38;3.20;74.00
13268;DHT22;6702;47.068;15.458;2022-12-11T16:58:42;3.20;74.70
13268;DHT22;6702;47.068;15.458;2022-12-11T17:01:46;3.30;75.00
13268;DHT22;6702;47.068;15.458;2022-12-11T17:04:51;3.30;74.50
13268;DHT22;6702;47.068;15.458;2022-12-11T17:07:55;3.30;75.00
13268;DHT22;6702;47.068;15.458;2022-12-11T17:10:59;3.40;75.30
13268;DHT22;6702;47.068;15.458;2022-12-11T17:14:08;3.40;74.20
13268;DHT22;6702;47.068;15.458;2022-12-11T17:17:14;3.30;74.70
13268;DHT22;6702;47.068;15.458;2022-12-11T17:20:19;3.40;74.80
13268;DHT22;6702;47.068;15.458;2022-12-11T17:23:25;3.50;74.70
13268;DHT22;6702;47.068;15.458;2022-12-11T17:26:29;3.60;75.10
13268;DHT22;6702;47.068;15.458;2022-12-11T17:29:33;3.70;75.10
13268;DHT22;6702;47.068;15.458;2022-12-11T17:32:39;3.70;75.00
13268;DHT22;6702;47.068;15.458;2022-12-11T17:35:43;3.70;74.50
13268;DHT22;6702;47.068;15.458;2022-12-11T17:38:48;3.70;73.80
13268;DHT22;6702;47.068;15.458;2022-12-11T17:41:52;3.70;74.50
13268;DHT22;6702;47.068;15.458;2022-12-11T17:44:56;3.70;74.80
13268;DHT22;6702;47.068;15.458;2022-12-11T17:48:01;3.80;73.40
13268;DHT22;6702;47.068;15.458;2022-12-11T17:51:07;3.70;73.80
13268;DHT22;6702;47.068;15.458;2022-12-11T17:54:11;3.80;74.20
13268;DHT22;6702;47.068;15.458;2022-12-11T17:57:14;3.70;73.70
13268;DHT22;6702;47.068;15.458;2022-12-11T18:00:18;3.80;73.60
13268;DHT22;6702;47.068;15.458;2022-12-11T18:03:23;3.90;73.00
13268;DHT22;6702;47.068;15.458;2022-12-11T18:06:29;3.80;72.80
13268;DHT22;6702;47.068;15.458;2022-12-11T18:09:33;3.80;73.10
13268;DHT22;6702;47.068;15.458;2022-12-11T18:12:37;3.80;73.00
13268;DHT22;6702;47.068;15.458;2022-12-11T18:15:41;3.80;72.50
13268;DHT22;6702;47.068;15.458;2022-12-11T18:18:48;3.90;72.70
13268;DHT22;6702;47.068;15.458;2022-12-11T18:21:53;4.00;72.10
13268;DHT22;6702;47.068;15.458;2022-12-11T18:24:58;4.00;71.00
13268;DHT22;6702;47.068;15.458;2022-12-11T18:28:11;4.00;71.20
13268;DHT22;6702;47.068;15.458;2022-12-11T18:31:17;4.00;71.10
13268;DHT22;6702;47.068;15.458;2022-12-11T18:34:24;4.00;69.60
13268;DHT22;6702;47.068;15.458;2022-12-11T18:37:29;4.00;70.30
13268;DHT22;6702;47.068;15.458;2022-12-11T18:40:33;4.00;69.60
13268;DHT22;6702;47.068;15.458;2022-12-11T18:43:37;4.00;68.90
13268;DHT22;6702;47.068;15.458;2022-12-11T18:46:42;4.10;67.80
13268;DHT22;6702;47.068;15.458;2022-12-11T18:49:47;4.00;68.00
13268;DHT22;6702;47.068;15.458;2022-12-11T18:52:54;3.90;68.00
13268;DHT22;6702;47.068;15.458;2022-12-11T18:55:59;4.00;68.60
13268;DHT22;6702;47.068;15.458;2022-12-11T18:59:04;4.00;67.60
13268;DHT22;6702;47.068;15.458;2022-12-11T19:02:10;3.90;67.50
13268;DHT22;6702;47.068;15.458;2022-12-11T19:05:18;3.90;66.80
13268;DHT22;6702;47.068;15.458;2022-12-11T19:08:22;3.90;67.30
13268;DHT22;6702;47.068;15.458;2022-12-11T19:11:28;3.90;67.10
13268;DHT22;6702;47.068;15.458;2022-12-11T19:14:32;3.80;66.40
13268;DHT22;6702;47.068;15.458;2022-12-11T19:17:37;3.70;65.70
13268;DHT22;6702;47.068;15.458;2022-12-11T19:20:42;3.60;65.90
13268;DHT22;6702;47.068;15.458;2022-12-11T19:23:55;3.60;66.00
13268;DHT22;6702;47.068;15.458;2022-12-11T19:27:00;3.60;66.50
13268;DHT22;6702;47.068;15.458;2022-12-11T19:30:15;3.70;66.90
13268;DHT22;6702;47.068;15.458;2022-12-11T19:33:19;3.60;65.60
13268;DHT22;6702;47.068;15.458;2022-12-11T19:36:27;3.60;66.00
13268;DHT22;6702;47.068;15.458;2022-12-11T19:39:32;3.60;66.00
13268;DHT22;6702;47.068;15.458;2022-12-11T19:42:37;3.50;66.10
13268;DHT22;6702;47.068;15.458;2022-12-11T19:45:43;3.50;65.30
13268;DHT22;6702;47.068;15.458;2022-12-11T19:48:51;3.50;65.50
13268;DHT22;6702;47.068;15.458;2022-12-11T19:51:58;3.50;65.40
13268;DHT22;6702;47.068;15.458;2022-12-11T19:55:04;3.50;65.60
13268;DHT22;6702;47.068;15.458;2022-12-11T19:58:08;3.50;65.70